sensor_id;sensor_type;location;lat;lon;timestamp;P1;durP1;ratioP1;P2;durP2;ratioP2
61252;SDS011;47127;47.516;8.596;2022-08-21T00:01:26;61.25;;;5.25;;
61252;SDS011;47127;47.516;8.596;2022-08-21T00:03:53;13.45;;;4.25;;
61252;SDS011;47127;47.516;8.596;2022-08-21T00:06:20;37.20;;;4.70;;
61252;SDS011;47127;47.516;8.596;2022-08-21T00:08:45;25.83;;;3.97;;
61252;SDS011;47127;47.516;8.596;2022-08-21T00:11:11;57.55;;;4.95;;
61252;SDS011;47127;47.516;8.596;2022-08-21T00:13:37;36.50;;;4.95;;
61252;SDS011;47127;47.516;8.596;2022-08-21T00:16:02;26.98;;;5.35;;
61252;SDS011;47127;47.516;8.596;2022-08-21T00:18:29;18.20;;;5.20;;
61252;SDS011;47127;47.516;8.596;2022-08-21T00:20:54;65.80;;;5.90;;
61252;SDS011;47127;47.516;8.596;2022-08-21T00:23:20;23.20;;;4.55;;
61252;SDS011;47127;47.516;8.596;2022-08-21T00:25:46;70.55;;;6.15;;
61252;SDS011;47127;47.516;8.596;2022-08-21T00:28:12;36.72;;;5.53;;
61252;SDS011;47127;47.516;8.596;2022-08-21T00:30:38;101.40;;;5.30;;
61252;SDS011;47127;47.516;8.596;2022-08-21T00:33:05;23.38;;;5.15;;
61252;SDS011;47127;47.516;8.596;2022-08-21T00:35:32;37.13;;;4.40;;
61252;SDS011;47127;47.516;8.596;2022-08-21T00:38:00;13.93;;;4.00;;
61252;SDS011;47127;47.516;8.596;2022-08-21T00:40:29;61.97;;;4.47;;
61252;SDS011;47127;47.516;8.596;2022-08-21T00:42:57;8.85;;;3.88;;
61252;SDS011;47127;47.516;8.596;2022-08-21T00:45:23;7.28;;;3.17;;
61252;SDS011;47127;47.516;8.596;2022-08-21T00:47:49;14.57;;;3.35;;
61252;SDS011;47127;47.516;8.596;2022-08-21T00:50:17;11.82;;;3.75;;
61252;SDS011;47127;47.516;8.596;2022-08-21T00:52:43;7.38;;;3.33;;
61252;SDS011;47127;47.516;8.596;2022-08-21T00:55:10;59.17;;;4.85;;
61252;SDS011;47127;47.516;8.596;2022-08-21T00:57:47;63.22;;;5.07;;
61252;SDS011;47127;47.516;8.596;2022-08-21T01:00:17;79.10;;;6.13;;
61252;SDS011;47127;47.516;8.596;2022-08-21T01:02:46;28.55;;;4.93;;
61252;SDS011;47127;47.516;8.596;2022-08-21T01:05:11;22.85;;;5.47;;
61252;SDS011;47127;47.516;8.596;2022-08-21T01:07:40;51.90;;;5.75;;
61252;SDS011;47127;47.516;8.596;2022-08-21T01:10:06;21.20;;;4.80;;
61252;SDS011;47127;47.516;8.596;2022-08-21T01:12:33;91.00;;;5.50;;
61252;SDS011;47127;47.516;8.596;2022-08-21T01:15:00;58.08;;;5.50;;
61252;SDS011;47127;47.516;8.596;2022-08-21T01:17:28;47.60;;;5.30;;
61252;SDS011;47127;47.516;8.596;2022-08-21T01:19:58;36.17;;;4.88;;
61252;SDS011;47127;47.516;8.596;2022-08-21T01:22:25;31.00;;;5.20;;
61252;SDS011;47127;47.516;8.596;2022-08-21T01:24:51;25.13;;;4.53;;
61252;SDS011;47127;47.516;8.596;2022-08-21T01:27:17;37.33;;;4.70;;
61252;SDS011;47127;47.516;8.596;2022-08-21T01:29:44;8.57;;;3.60;;
61252;SDS011;47127;47.516;8.596;2022-08-21T01:32:16;37.35;;;4.63;;
61252;SDS011;47127;47.516;8.596;2022-08-21T01:34:44;14.02;;;3.88;;
61252;SDS011;47127;47.516;8.596;2022-08-21T01:37:11;44.03;;;4.65;;
61252;SDS011;47127;47.516;8.596;2022-08-21T01:39:38;12.95;;;3.88;;
61252;SDS011;47127;47.516;8.596;2022-08-21T01:42:04;39.55;;;4.50;;
61252;SDS011;47127;47.516;8.596;2022-08-21T01:44:30;28.85;;;4.32;;
61252;SDS011;47127;47.516;8.596;2022-08-21T01:46:57;25.88;;;3.67;;
61252;SDS011;47127;47.516;8.596;2022-08-21T01:49:25;12.90;;;3.83;;
61252;SDS011;47127;47.516;8.596;2022-08-21T01:51:51;35.40;;;4.03;;
61252;SDS011;47127;47.516;8.596;2022-08-21T01:54:17;23.45;;;4.30;;
61252;SDS011;47127;47.516;8.596;2022-08-21T01:56:45;22.05;;;4.20;;
61252;SDS011;47127;47.516;8.596;2022-08-21T01:59:12;60.28;;;5.07;;
61252;SDS011;47127;47.516;8.596;2022-08-21T02:01:37;11.40;;;3.55;;
61252;SDS011;47127;47.516;8.596;2022-08-21T02:04:07;14.75;;;3.53;;
61252;SDS011;47127;47.516;8.596;2022-08-21T02:06:34;37.85;;;3.40;;
61252;SDS011;47127;47.516;8.596;2022-08-21T02:09:03;24.17;;;3.67;;
61252;SDS011;47127;47.516;8.596;2022-08-21T02:11:31;30.42;;;3.85;;
61252;SDS011;47127;47.516;8.596;2022-08-21T02:13:57;40.65;;;4.25;;
61252;SDS011;47127;47.516;8.596;2022-08-21T02:16:23;19.40;;;3.72;;
61252;SDS011;47127;47.516;8.596;2022-08-21T02:18:48;10.38;;;3.25;;
61252;SDS011;47127;47.516;8.596;2022-08-21T02:21:14;7.65;;;3.38;;
61252;SDS011;47127;47.516;8.596;2022-08-21T02:23:40;11.13;;;3.30;;
61252;SDS011;47127;47.516;8.596;2022-08-21T02:26:06;5.28;;;3.38;;
61252;SDS011;47127;47.516;8.596;2022-08-21T02:28:33;9.18;;;3.50;;
61252;SDS011;47127;47.516;8.596;2022-08-21T02:30:59;29.45;;;3.70;;
61252;SDS011;47127;47.516;8.596;2022-08-21T02:33:26;82.53;;;5.20;;
61252;SDS011;47127;47.516;8.596;2022-08-21T02:35:52;60.67;;;4.32;;
61252;SDS011;47127;47.516;8.596;2022-08-21T02:38:20;40.65;;;3.88;;
61252;SDS011;47127;47.516;8.596;2022-08-21T02:40:48;35.35;;;3.10;;
61252;SDS011;47127;47.516;8.596;2022-08-21T02:43:15;62.72;;;3.65;;
61252;SDS011;47127;47.516;8.596;2022-08-21T02:45:41;25.17;;;3.30;;
61252;SDS011;47127;47.516;8.596;2022-08-21T02:48:08;93.88;;;4.68;;
61252;SDS011;47127;47.516;8.596;2022-08-21T02:50:37;70.60;;;4.32;;
61252;SDS011;47127;47.516;8.596;2022-08-21T02:53:09;50.60;;;4.45;;
61252;SDS011;47127;47.516;8.596;2022-08-21T02:55:36;9.82;;;2.80;;
61252;SDS011;47127;47.516;8.596;2022-08-21T02:58:03;52.00;;;3.95;;
61252;SDS011;47127;47.516;8.596;2022-08-21T03:00:32;15.27;;;3.05;;
61252;SDS011;47127;47.516;8.596;2022-08-21T03:02:59;30.58;;;4.15;;
61252;SDS011;47127;47.516;8.596;2022-08-21T03:05:25;12.93;;;3.40;;
61252;SDS011;47127;47.516;8.596;2022-08-21T03:07:53;35.22;;;3.40;;
61252;SDS011;47127;47.516;8.596;2022-08-21T03:10:19;58.42;;;4.38;;
61252;SDS011;47127;47.516;8.596;2022-08-21T03:12:46;61.25;;;4.45;;
61252;SDS011;47127;47.516;8.596;2022-08-21T03:15:17;67.25;;;4.45;;
61252;SDS011;47127;47.516;8.596;2022-08-21T03:17:44;13.25;;;3.28;;
61252;SDS011;47127;47.516;8.596;2022-08-21T03:20:12;21.67;;;3.38;;
61252;SDS011;47127;47.516;8.596;2022-08-21T03:22:39;15.13;;;3.30;;
61252;SDS011;47127;47.516;8.596;2022-08-21T03:25:05;5.32;;;2.55;;
61252;SDS011;47127;47.516;8.596;2022-08-21T03:27:31;14.27;;;3.88;;
61252;SDS011;47127;47.516;8.596;2022-08-21T03:29:58;46.95;;;3.72;;
61252;SDS011;47127;47.516;8.596;2022-08-21T03:32:25;44.25;;;3.85;;
61252;SDS011;47127;47.516;8.596;2022-08-21T03:34:50;31.40;;;3.42;;
61252;SDS011;47127;47.516;8.596;2022-08-21T03:37:16;30.02;;;3.35;;
61252;SDS011;47127;47.516;8.596;2022-08-21T03:39:42;17.15;;;3.28;;
61252;SDS011;47127;47.516;8.596;2022-08-21T03:42:09;11.02;;;3.15;;
61252;SDS011;47127;47.516;8.596;2022-08-21T03:44:35;32.03;;;4.13;;
61252;SDS011;47127;47.516;8.596;2022-08-21T03:47:02;41.10;;;3.92;;
61252;SDS011;47127;47.516;8.596;2022-08-21T03:49:28;25.52;;;3.67;;
61252;SDS011;47127;47.516;8.596;2022-08-21T03:51:53;43.70;;;3.65;;
61252;SDS011;47127;47.516;8.596;2022-08-21T03:54:19;15.40;;;3.50;;
61252;SDS011;47127;47.516;8.596;2022-08-21T03:56:45;28.00;;;3.40;;
61252;SDS011;47127;47.516;8.596;2022-08-21T03:59:10;46.70;;;4.25;;
61252;SDS011;47127;47.516;8.596;2022-08-21T04:01:36;15.60;;;3.75;;
61252;SDS011;47127;47.516;8.596;2022-08-21T04:04:03;18.33;;;3.58;;
61252;SDS011;47127;47.516;8.596;2022-08-21T04:06:29;38.47;;;4.10;;
61252;SDS011;47127;47.516;8.596;2022-08-21T04:08:54;47.13;;;4.20;;
61252;SDS011;47127;47.516;8.596;2022-08-21T04:11:20;29.70;;;3.90;;
61252;SDS011;47127;47.516;8.596;2022-08-21T04:13:46;20.45;;;3.67;;
61252;SDS011;47127;47.516;8.596;2022-08-21T04:16:12;30.67;;;4.05;;
61252;SDS011;47127;47.516;8.596;2022-08-21T04:18:37;19.52;;;3.70;;
61252;SDS011;47127;47.516;8.596;2022-08-21T04:21:03;18.60;;;3.70;;
61252;SDS011;47127;47.516;8.596;2022-08-21T04:23:32;22.60;;;3.80;;
61252;SDS011;47127;47.516;8.596;2022-08-21T04:25:58;48.80;;;3.78;;
61252;SDS011;47127;47.516;8.596;2022-08-21T04:28:24;59.80;;;4.85;;
61252;SDS011;47127;47.516;8.596;2022-08-21T04:30:52;17.55;;;4.05;;
61252;SDS011;47127;47.516;8.596;2022-08-21T04:33:18;9.57;;;3.10;;
61252;SDS011;47127;47.516;8.596;2022-08-21T04:35:44;60.45;;;4.78;;
61252;SDS011;47127;47.516;8.596;2022-08-21T04:38:10;5.22;;;3.20;;
61252;SDS011;47127;47.516;8.596;2022-08-21T04:40:35;40.97;;;4.22;;
61252;SDS011;47127;47.516;8.596;2022-08-21T04:43:03;4.80;;;3.25;;
61252;SDS011;47127;47.516;8.596;2022-08-21T04:45:32;5.45;;;3.42;;
61252;SDS011;47127;47.516;8.596;2022-08-21T04:48:00;7.05;;;3.47;;
61252;SDS011;47127;47.516;8.596;2022-08-21T04:50:38;12.38;;;3.72;;
61252;SDS011;47127;47.516;8.596;2022-08-21T04:53:14;7.65;;;3.15;;
61252;SDS011;47127;47.516;8.596;2022-08-21T04:55:43;3.92;;;2.30;;
61252;SDS011;47127;47.516;8.596;2022-08-21T04:58:11;3.80;;;2.17;;
61252;SDS011;47127;47.516;8.596;2022-08-21T05:00:39;4.03;;;2.13;;
61252;SDS011;47127;47.516;8.596;2022-08-21T05:03:06;3.15;;;1.88;;
61252;SDS011;47127;47.516;8.596;2022-08-21T05:05:34;3.38;;;1.48;;
61252;SDS011;47127;47.516;8.596;2022-08-21T05:08:00;1.90;;;1.40;;
61252;SDS011;47127;47.516;8.596;2022-08-21T05:10:27;3.60;;;1.83;;
61252;SDS011;47127;47.516;8.596;2022-08-21T05:12:53;3.78;;;1.95;;
61252;SDS011;47127;47.516;8.596;2022-08-21T05:15:20;2.30;;;1.65;;
61252;SDS011;47127;47.516;8.596;2022-08-21T05:17:45;2.92;;;1.90;;
61252;SDS011;47127;47.516;8.596;2022-08-21T05:20:11;4.18;;;2.35;;
61252;SDS011;47127;47.516;8.596;2022-08-21T05:22:38;3.58;;;2.30;;
61252;SDS011;47127;47.516;8.596;2022-08-21T05:25:05;7.10;;;2.20;;
61252;SDS011;47127;47.516;8.596;2022-08-21T05:27:31;4.38;;;2.38;;
61252;SDS011;47127;47.516;8.596;2022-08-21T05:29:57;5.90;;;2.63;;
61252;SDS011;47127;47.516;8.596;2022-08-21T05:32:22;5.95;;;2.50;;
61252;SDS011;47127;47.516;8.596;2022-08-21T05:34:49;10.73;;;3.35;;
61252;SDS011;47127;47.516;8.596;2022-08-21T05:37:15;4.90;;;2.70;;
61252;SDS011;47127;47.516;8.596;2022-08-21T05:39:41;4.88;;;2.83;;
61252;SDS011;47127;47.516;8.596;2022-08-21T05:42:06;5.80;;;2.95;;
61252;SDS011;47127;47.516;8.596;2022-08-21T05:44:32;7.38;;;3.17;;
61252;SDS011;47127;47.516;8.596;2022-08-21T05:47:02;5.82;;;3.10;;
61252;SDS011;47127;47.516;8.596;2022-08-21T05:49:32;6.22;;;3.28;;
61252;SDS011;47127;47.516;8.596;2022-08-21T05:51:58;6.03;;;3.13;;
61252;SDS011;47127;47.516;8.596;2022-08-21T05:54:24;6.45;;;3.17;;
61252;SDS011;47127;47.516;8.596;2022-08-21T05:56:49;6.18;;;3.03;;
61252;SDS011;47127;47.516;8.596;2022-08-21T05:59:16;6.05;;;3.28;;
61252;SDS011;47127;47.516;8.596;2022-08-21T06:01:43;5.55;;;2.78;;
61252;SDS011;47127;47.516;8.596;2022-08-21T06:04:10;9.25;;;4.25;;
61252;SDS011;47127;47.516;8.596;2022-08-21T06:06:36;8.32;;;3.80;;
61252;SDS011;47127;47.516;8.596;2022-08-21T06:09:01;7.80;;;3.78;;
61252;SDS011;47127;47.516;8.596;2022-08-21T06:11:29;8.35;;;3.72;;
61252;SDS011;47127;47.516;8.596;2022-08-21T06:13:55;8.02;;;3.50;;
61252;SDS011;47127;47.516;8.596;2022-08-21T06:16:20;8.13;;;3.60;;
61252;SDS011;47127;47.516;8.596;2022-08-21T06:18:47;6.72;;;3.28;;
61252;SDS011;47127;47.516;8.596;2022-08-21T06:21:13;7.60;;;4.10;;
61252;SDS011;47127;47.516;8.596;2022-08-21T06:23:39;7.40;;;3.67;;
61252;SDS011;47127;47.516;8.596;2022-08-21T06:26:06;7.05;;;3.22;;
61252;SDS011;47127;47.516;8.596;2022-08-21T06:28:34;6.97;;;3.30;;
61252;SDS011;47127;47.516;8.596;2022-08-21T06:31:00;5.68;;;3.45;;
61252;SDS011;47127;47.516;8.596;2022-08-21T06:33:26;6.00;;;3.10;;
61252;SDS011;47127;47.516;8.596;2022-08-21T06:35:51;6.55;;;3.22;;
61252;SDS011;47127;47.516;8.596;2022-08-21T06:38:17;8.05;;;3.38;;
61252;SDS011;47127;47.516;8.596;2022-08-21T06:40:43;7.97;;;3.35;;
61252;SDS011;47127;47.516;8.596;2022-08-21T06:43:09;7.80;;;3.58;;
61252;SDS011;47127;47.516;8.596;2022-08-21T06:45:39;9.10;;;4.40;;
61252;SDS011;47127;47.516;8.596;2022-08-21T06:48:05;7.45;;;3.65;;
61252;SDS011;47127;47.516;8.596;2022-08-21T06:50:34;7.82;;;3.83;;
61252;SDS011;47127;47.516;8.596;2022-08-21T06:53:05;7.57;;;3.90;;
61252;SDS011;47127;47.516;8.596;2022-08-21T06:55:33;5.53;;;2.80;;
61252;SDS011;47127;47.516;8.596;2022-08-21T06:57:58;6.30;;;3.53;;
61252;SDS011;47127;47.516;8.596;2022-08-21T07:00:25;6.28;;;3.63;;
61252;SDS011;47127;47.516;8.596;2022-08-21T07:02:51;8.18;;;3.65;;
61252;SDS011;47127;47.516;8.596;2022-08-21T07:05:17;6.78;;;3.63;;
61252;SDS011;47127;47.516;8.596;2022-08-21T07:07:42;6.07;;;3.28;;
61252;SDS011;47127;47.516;8.596;2022-08-21T07:10:08;6.90;;;3.80;;
61252;SDS011;47127;47.516;8.596;2022-08-21T07:12:34;6.07;;;3.40;;
61252;SDS011;47127;47.516;8.596;2022-08-21T07:14:59;5.65;;;3.33;;
61252;SDS011;47127;47.516;8.596;2022-08-21T07:17:25;7.32;;;3.33;;
61252;SDS011;47127;47.516;8.596;2022-08-21T07:19:51;7.07;;;2.65;;
61252;SDS011;47127;47.516;8.596;2022-08-21T07:22:18;7.13;;;3.60;;
61252;SDS011;47127;47.516;8.596;2022-08-21T07:24:45;5.43;;;3.00;;
61252;SDS011;47127;47.516;8.596;2022-08-21T07:27:11;6.22;;;3.22;;
61252;SDS011;47127;47.516;8.596;2022-08-21T07:29:37;6.93;;;3.28;;
61252;SDS011;47127;47.516;8.596;2022-08-21T07:32:03;5.03;;;2.78;;
61252;SDS011;47127;47.516;8.596;2022-08-21T07:34:29;5.40;;;3.30;;
61252;SDS011;47127;47.516;8.596;2022-08-21T07:36:56;5.57;;;3.20;;
61252;SDS011;47127;47.516;8.596;2022-08-21T07:39:22;4.78;;;3.00;;
61252;SDS011;47127;47.516;8.596;2022-08-21T07:41:47;6.00;;;3.35;;
61252;SDS011;47127;47.516;8.596;2022-08-21T07:44:13;4.88;;;3.10;;
61252;SDS011;47127;47.516;8.596;2022-08-21T07:46:38;4.93;;;2.92;;
61252;SDS011;47127;47.516;8.596;2022-08-21T07:49:04;5.10;;;2.92;;
61252;SDS011;47127;47.516;8.596;2022-08-21T07:51:30;4.63;;;2.83;;
61252;SDS011;47127;47.516;8.596;2022-08-21T07:53:56;5.20;;;3.33;;
61252;SDS011;47127;47.516;8.596;2022-08-21T07:56:24;5.32;;;3.20;;
61252;SDS011;47127;47.516;8.596;2022-08-21T07:58:50;5.60;;;3.28;;
61252;SDS011;47127;47.516;8.596;2022-08-21T08:01:16;5.28;;;3.42;;
61252;SDS011;47127;47.516;8.596;2022-08-21T08:03:42;6.15;;;3.20;;
61252;SDS011;47127;47.516;8.596;2022-08-21T08:06:08;6.30;;;3.40;;
61252;SDS011;47127;47.516;8.596;2022-08-21T08:08:37;5.78;;;3.53;;
61252;SDS011;47127;47.516;8.596;2022-08-21T08:11:05;6.22;;;3.78;;
61252;SDS011;47127;47.516;8.596;2022-08-21T08:13:31;6.28;;;3.30;;
61252;SDS011;47127;47.516;8.596;2022-08-21T08:16:02;6.82;;;3.75;;
61252;SDS011;47127;47.516;8.596;2022-08-21T08:18:28;5.47;;;3.03;;
61252;SDS011;47127;47.516;8.596;2022-08-21T08:20:53;5.07;;;3.15;;
61252;SDS011;47127;47.516;8.596;2022-08-21T08:23:19;5.85;;;3.15;;
61252;SDS011;47127;47.516;8.596;2022-08-21T08:25:44;6.45;;;2.85;;
61252;SDS011;47127;47.516;8.596;2022-08-21T08:28:10;5.32;;;3.00;;
61252;SDS011;47127;47.516;8.596;2022-08-21T08:30:36;5.78;;;3.38;;
61252;SDS011;47127;47.516;8.596;2022-08-21T08:33:01;6.78;;;3.00;;
61252;SDS011;47127;47.516;8.596;2022-08-21T08:35:27;4.88;;;2.85;;
61252;SDS011;47127;47.516;8.596;2022-08-21T08:37:53;4.43;;;2.95;;
61252;SDS011;47127;47.516;8.596;2022-08-21T08:40:27;6.13;;;3.08;;
61252;SDS011;47127;47.516;8.596;2022-08-21T08:42:55;4.13;;;2.70;;
61252;SDS011;47127;47.516;8.596;2022-08-21T08:45:21;5.90;;;2.70;;
61252;SDS011;47127;47.516;8.596;2022-08-21T08:47:55;4.22;;;2.20;;
61252;SDS011;47127;47.516;8.596;2022-08-21T08:50:33;8.30;;;2.42;;
61252;SDS011;47127;47.516;8.596;2022-08-21T08:53:21;4.38;;;2.63;;
61252;SDS011;47127;47.516;8.596;2022-08-21T08:55:50;5.05;;;2.60;;
61252;SDS011;47127;47.516;8.596;2022-08-21T08:58:22;4.28;;;2.30;;
61252;SDS011;47127;47.516;8.596;2022-08-21T09:00:55;3.47;;;2.13;;
61252;SDS011;47127;47.516;8.596;2022-08-21T09:03:22;3.80;;;2.58;;
61252;SDS011;47127;47.516;8.596;2022-08-21T09:20:55;4.07;;;2.25;;
61252;SDS011;47127;47.516;8.596;2022-08-21T09:26:11;4.00;;;2.65;;
61252;SDS011;47127;47.516;8.596;2022-08-21T09:28:43;5.85;;;2.80;;
61252;SDS011;47127;47.516;8.596;2022-08-21T09:31:25;4.97;;;3.00;;
61252;SDS011;47127;47.516;8.596;2022-08-21T09:34:01;3.90;;;2.70;;
61252;SDS011;47127;47.516;8.596;2022-08-21T09:36:38;3.85;;;2.60;;
61252;SDS011;47127;47.516;8.596;2022-08-21T09:39:13;6.88;;;3.42;;
61252;SDS011;47127;47.516;8.596;2022-08-21T09:42:02;3.15;;;2.40;;
61252;SDS011;47127;47.516;8.596;2022-08-21T09:44:31;3.95;;;2.60;;
61252;SDS011;47127;47.516;8.596;2022-08-21T09:47:01;4.53;;;2.42;;
61252;SDS011;47127;47.516;8.596;2022-08-21T09:49:27;3.92;;;2.42;;
61252;SDS011;47127;47.516;8.596;2022-08-21T09:51:57;6.53;;;2.78;;
61252;SDS011;47127;47.516;8.596;2022-08-21T09:54:34;6.95;;;2.92;;
61252;SDS011;47127;47.516;8.596;2022-08-21T09:59:53;5.80;;;2.42;;
61252;SDS011;47127;47.516;8.596;2022-08-21T10:02:25;4.30;;;2.40;;
61252;SDS011;47127;47.516;8.596;2022-08-21T10:05:14;5.05;;;2.20;;
61252;SDS011;47127;47.516;8.596;2022-08-21T10:07:41;4.72;;;2.05;;
61252;SDS011;47127;47.516;8.596;2022-08-21T10:10:08;4.82;;;2.00;;
61252;SDS011;47127;47.516;8.596;2022-08-21T10:15:22;5.30;;;2.25;;
61252;SDS011;47127;47.516;8.596;2022-08-21T10:28:22;6.88;;;2.22;;
61252;SDS011;47127;47.516;8.596;2022-08-21T10:37:16;6.68;;;2.80;;
61252;SDS011;47127;47.516;8.596;2022-08-21T10:42:23;4.22;;;2.05;;
61252;SDS011;47127;47.516;8.596;2022-08-21T10:47:41;4.63;;;2.10;;
61252;SDS011;47127;47.516;8.596;2022-08-21T10:55:22;5.03;;;1.73;;
61252;SDS011;47127;47.516;8.596;2022-08-21T10:58:29;8.05;;;2.17;;
61252;SDS011;47127;47.516;8.596;2022-08-21T11:00:51;4.20;;;1.90;;
61252;SDS011;47127;47.516;8.596;2022-08-21T11:06:00;3.00;;;1.55;;
61252;SDS011;47127;47.516;8.596;2022-08-21T11:08:37;2.88;;;1.48;;
61252;SDS011;47127;47.516;8.596;2022-08-21T11:11:14;3.38;;;1.50;;
61252;SDS011;47127;47.516;8.596;2022-08-21T11:13:47;3.03;;;1.13;;
61252;SDS011;47127;47.516;8.596;2022-08-21T11:22:06;3.67;;;1.30;;
61252;SDS011;47127;47.516;8.596;2022-08-21T11:27:20;4.20;;;1.50;;
61252;SDS011;47127;47.516;8.596;2022-08-21T11:30:02;3.70;;;1.35;;
61252;SDS011;47127;47.516;8.596;2022-08-21T11:43:46;3.75;;;1.33;;
61252;SDS011;47127;47.516;8.596;2022-08-21T11:46:35;5.00;;;1.25;;
61252;SDS011;47127;47.516;8.596;2022-08-21T11:49:19;2.50;;;1.05;;
61252;SDS011;47127;47.516;8.596;2022-08-21T11:52:25;2.53;;;1.23;;
61252;SDS011;47127;47.516;8.596;2022-08-21T11:57:51;4.57;;;1.00;;
61252;SDS011;47127;47.516;8.596;2022-08-21T12:00:24;6.00;;;1.90;;
61252;SDS011;47127;47.516;8.596;2022-08-21T12:02:54;2.58;;;1.20;;
61252;SDS011;47127;47.516;8.596;2022-08-21T12:05:23;3.25;;;1.00;;
61252;SDS011;47127;47.516;8.596;2022-08-21T12:08:02;2.63;;;0.90;;
61252;SDS011;47127;47.516;8.596;2022-08-21T12:10:38;1.23;;;0.93;;
61252;SDS011;47127;47.516;8.596;2022-08-21T12:15:34;3.53;;;1.38;;
61252;SDS011;47127;47.516;8.596;2022-08-21T12:18:02;1.90;;;1.20;;
61252;SDS011;47127;47.516;8.596;2022-08-21T12:25:37;1.85;;;0.90;;
61252;SDS011;47127;47.516;8.596;2022-08-21T12:28:07;3.88;;;1.30;;
61252;SDS011;47127;47.516;8.596;2022-08-21T12:30:37;1.40;;;0.90;;
61252;SDS011;47127;47.516;8.596;2022-08-21T12:33:09;7.55;;;2.03;;
61252;SDS011;47127;47.516;8.596;2022-08-21T12:35:43;2.42;;;0.80;;
61252;SDS011;47127;47.516;8.596;2022-08-21T12:38:17;2.80;;;1.00;;
61252;SDS011;47127;47.516;8.596;2022-08-21T12:40:54;2.47;;;1.10;;
61252;SDS011;47127;47.516;8.596;2022-08-21T12:43:37;2.50;;;1.00;;
61252;SDS011;47127;47.516;8.596;2022-08-21T12:46:13;4.20;;;1.90;;
61252;SDS011;47127;47.516;8.596;2022-08-21T12:48:52;2.45;;;0.85;;
61252;SDS011;47127;47.516;8.596;2022-08-21T12:52:24;1.98;;;0.68;;
61252;SDS011;47127;47.516;8.596;2022-08-21T12:54:23;1.50;;;0.90;;
61252;SDS011;47127;47.516;8.596;2022-08-21T12:57:01;6.28;;;0.80;;
61252;SDS011;47127;47.516;8.596;2022-08-21T12:59:29;2.55;;;1.00;;
61252;SDS011;47127;47.516;8.596;2022-08-21T13:01:56;2.78;;;0.77;;
61252;SDS011;47127;47.516;8.596;2022-08-21T13:04:38;1.48;;;1.00;;
61252;SDS011;47127;47.516;8.596;2022-08-21T13:07:10;1.40;;;0.80;;
61252;SDS011;47127;47.516;8.596;2022-08-21T13:09:41;1.55;;;0.80;;
61252;SDS011;47127;47.516;8.596;2022-08-21T13:12:14;2.03;;;0.90;;
61252;SDS011;47127;47.516;8.596;2022-08-21T13:14:41;1.15;;;0.80;;
61252;SDS011;47127;47.516;8.596;2022-08-21T13:17:09;1.25;;;0.85;;
61252;SDS011;47127;47.516;8.596;2022-08-21T13:19:36;1.60;;;0.70;;
61252;SDS011;47127;47.516;8.596;2022-08-21T13:22:02;0.80;;;0.68;;
61252;SDS011;47127;47.516;8.596;2022-08-21T13:24:35;2.67;;;0.95;;
61252;SDS011;47127;47.516;8.596;2022-08-21T13:27:02;2.00;;;0.93;;
61252;SDS011;47127;47.516;8.596;2022-08-21T13:29:31;1.75;;;0.73;;
61252;SDS011;47127;47.516;8.596;2022-08-21T13:32:02;3.08;;;0.98;;
61252;SDS011;47127;47.516;8.596;2022-08-21T13:34:33;1.67;;;0.80;;
61252;SDS011;47127;47.516;8.596;2022-08-21T13:37:02;0.45;;;0.40;;
61252;SDS011;47127;47.516;8.596;2022-08-21T13:39:33;3.17;;;0.40;;
61252;SDS011;47127;47.516;8.596;2022-08-21T13:42:00;2.15;;;0.60;;
61252;SDS011;47127;47.516;8.596;2022-08-21T13:44:32;0.60;;;0.50;;
61252;SDS011;47127;47.516;8.596;2022-08-21T13:47:09;1.15;;;0.63;;
61252;SDS011;47127;47.516;8.596;2022-08-21T13:49:39;1.17;;;0.60;;
61252;SDS011;47127;47.516;8.596;2022-08-21T13:52:21;1.90;;;0.68;;
61252;SDS011;47127;47.516;8.596;2022-08-21T13:54:53;3.47;;;0.90;;
61252;SDS011;47127;47.516;8.596;2022-08-21T13:57:31;4.03;;;1.13;;
61252;SDS011;47127;47.516;8.596;2022-08-21T14:02:47;1.50;;;0.70;;
61252;SDS011;47127;47.516;8.596;2022-08-21T14:05:20;1.85;;;0.60;;
61252;SDS011;47127;47.516;8.596;2022-08-21T14:08:03;0.70;;;0.50;;
61252;SDS011;47127;47.516;8.596;2022-08-21T14:10:37;0.80;;;0.50;;
61252;SDS011;47127;47.516;8.596;2022-08-21T14:13:21;0.50;;;0.50;;
61252;SDS011;47127;47.516;8.596;2022-08-21T14:15:58;1.10;;;0.50;;
61252;SDS011;47127;47.516;8.596;2022-08-21T14:18:26;1.88;;;0.52;;
61252;SDS011;47127;47.516;8.596;2022-08-21T14:21:02;1.63;;;0.60;;
61252;SDS011;47127;47.516;8.596;2022-08-21T14:23:30;1.20;;;0.50;;
61252;SDS011;47127;47.516;8.596;2022-08-21T14:25:58;2.00;;;1.00;;
61252;SDS011;47127;47.516;8.596;2022-08-21T14:28:27;1.08;;;0.60;;
61252;SDS011;47127;47.516;8.596;2022-08-21T14:30:57;0.63;;;0.50;;
61252;SDS011;47127;47.516;8.596;2022-08-21T14:33:27;2.47;;;0.50;;
61252;SDS011;47127;47.516;8.596;2022-08-21T14:35:55;4.95;;;0.50;;
61252;SDS011;47127;47.516;8.596;2022-08-21T14:38:22;0.85;;;0.40;;
61252;SDS011;47127;47.516;8.596;2022-08-21T14:40:51;1.52;;;0.73;;
61252;SDS011;47127;47.516;8.596;2022-08-21T14:43:20;1.20;;;0.50;;
61252;SDS011;47127;47.516;8.596;2022-08-21T14:45:46;0.90;;;0.50;;
61252;SDS011;47127;47.516;8.596;2022-08-21T14:48:12;0.60;;;0.50;;
61252;SDS011;47127;47.516;8.596;2022-08-21T14:50:38;1.48;;;0.40;;
61252;SDS011;47127;47.516;8.596;2022-08-21T14:53:03;5.00;;;1.30;;
61252;SDS011;47127;47.516;8.596;2022-08-21T14:55:29;5.43;;;1.33;;
61252;SDS011;47127;47.516;8.596;2022-08-21T14:58:16;0.40;;;0.40;;
61252;SDS011;47127;47.516;8.596;2022-08-21T15:00:42;1.17;;;0.40;;
61252;SDS011;47127;47.516;8.596;2022-08-21T15:03:07;0.50;;;0.40;;
61252;SDS011;47127;47.516;8.596;2022-08-21T15:05:33;2.78;;;0.50;;
61252;SDS011;47127;47.516;8.596;2022-08-21T15:07:59;2.42;;;0.60;;
61252;SDS011;47127;47.516;8.596;2022-08-21T15:10:24;6.32;;;1.70;;
61252;SDS011;47127;47.516;8.596;2022-08-21T15:12:50;1.23;;;0.50;;
61252;SDS011;47127;47.516;8.596;2022-08-21T15:15:15;1.08;;;0.50;;
61252;SDS011;47127;47.516;8.596;2022-08-21T15:17:41;2.05;;;0.77;;
61252;SDS011;47127;47.516;8.596;2022-08-21T15:20:07;2.70;;;0.65;;
61252;SDS011;47127;47.516;8.596;2022-08-21T15:22:34;0.70;;;0.50;;
61252;SDS011;47127;47.516;8.596;2022-08-21T15:24:59;2.08;;;0.63;;
61252;SDS011;47127;47.516;8.596;2022-08-21T15:27:26;1.13;;;0.60;;
61252;SDS011;47127;47.516;8.596;2022-08-21T15:29:52;0.45;;;0.40;;
61252;SDS011;47127;47.516;8.596;2022-08-21T15:34:55;0.73;;;0.40;;
61252;SDS011;47127;47.516;8.596;2022-08-21T15:37:22;1.67;;;0.60;;
61252;SDS011;47127;47.516;8.596;2022-08-21T15:39:49;5.78;;;0.60;;
61252;SDS011;47127;47.516;8.596;2022-08-21T15:42:15;1.20;;;0.60;;
61252;SDS011;47127;47.516;8.596;2022-08-21T15:44:41;1.10;;;0.50;;
61252;SDS011;47127;47.516;8.596;2022-08-21T15:47:12;1.90;;;0.50;;
61252;SDS011;47127;47.516;8.596;2022-08-21T15:49:40;2.05;;;0.70;;
61252;SDS011;47127;47.516;8.596;2022-08-21T15:52:09;0.88;;;0.40;;
61252;SDS011;47127;47.516;8.596;2022-08-21T15:54:45;0.52;;;0.47;;
61252;SDS011;47127;47.516;8.596;2022-08-21T15:57:13;1.00;;;0.40;;
61252;SDS011;47127;47.516;8.596;2022-08-21T15:59:42;1.27;;;0.50;;
61252;SDS011;47127;47.516;8.596;2022-08-21T16:02:21;1.48;;;0.40;;
61252;SDS011;47127;47.516;8.596;2022-08-21T16:04:55;1.00;;;0.40;;
61252;SDS011;47127;47.516;8.596;2022-08-21T16:07:21;0.95;;;0.70;;
61252;SDS011;47127;47.516;8.596;2022-08-21T16:09:46;1.77;;;0.50;;
61252;SDS011;47127;47.516;8.596;2022-08-21T16:12:13;1.75;;;0.57;;
61252;SDS011;47127;47.516;8.596;2022-08-21T16:14:53;0.60;;;0.45;;
61252;SDS011;47127;47.516;8.596;2022-08-21T16:17:20;2.80;;;0.40;;
61252;SDS011;47127;47.516;8.596;2022-08-21T16:19:49;0.95;;;0.60;;
61252;SDS011;47127;47.516;8.596;2022-08-21T16:22:15;0.50;;;0.50;;